sensor_id;sensor_type;location;lat;lon;timestamp;P1;durP1;ratioP1;P2;durP2;ratioP2
19026;SDS011;9646;52.034;5.554;2023-07-02T00:00:57;11.02;;;5.70;;
19026;SDS011;9646;52.034;5.554;2023-07-02T00:03:24;15.95;;;6.80;;
19026;SDS011;9646;52.034;5.554;2023-07-02T00:05:51;18.08;;;6.75;;
19026;SDS011;9646;52.034;5.554;2023-07-02T00:08:21;14.68;;;6.25;;
19026;SDS011;9646;52.034;5.554;2023-07-02T00:10:48;14.20;;;6.15;;
19026;SDS011;9646;52.034;5.554;2023-07-02T00:13:15;13.88;;;6.32;;
19026;SDS011;9646;52.034;5.554;2023-07-02T00:15:42;13.45;;;5.93;;
19026;SDS011;9646;52.034;5.554;2023-07-02T00:18:09;11.90;;;5.25;;
19026;SDS011;9646;52.034;5.554;2023-07-02T00:20:37;12.55;;;4.72;;
19026;SDS011;9646;52.034;5.554;2023-07-02T00:23:06;11.15;;;5.60;;
19026;SDS011;9646;52.034;5.554;2023-07-02T00:25:35;10.07;;;5.63;;
19026;SDS011;9646;52.034;5.554;2023-07-02T00:28:02;9.13;;;4.82;;
19026;SDS011;9646;52.034;5.554;2023-07-02T00:30:29;13.02;;;5.68;;
19026;SDS011;9646;52.034;5.554;2023-07-02T00:32:56;7.15;;;4.78;;
19026;SDS011;9646;52.034;5.554;2023-07-02T00:35:24;11.85;;;5.45;;
19026;SDS011;9646;52.034;5.554;2023-07-02T00:37:51;9.35;;;4.68;;
19026;SDS011;9646;52.034;5.554;2023-07-02T00:40:18;10.48;;;4.70;;
19026;SDS011;9646;52.034;5.554;2023-07-02T00:42:46;13.93;;;6.07;;
19026;SDS011;9646;52.034;5.554;2023-07-02T00:45:13;12.80;;;5.10;;
19026;SDS011;9646;52.034;5.554;2023-07-02T00:47:40;12.95;;;5.38;;
19026;SDS011;9646;52.034;5.554;2023-07-02T00:50:07;10.45;;;5.05;;
19026;SDS011;9646;52.034;5.554;2023-07-02T00:52:35;8.43;;;4.90;;
19026;SDS011;9646;52.034;5.554;2023-07-02T00:55:02;8.57;;;4.53;;
19026;SDS011;9646;52.034;5.554;2023-07-02T00:57:29;10.63;;;4.90;;
19026;SDS011;9646;52.034;5.554;2023-07-02T00:59:58;10.23;;;4.85;;
19026;SDS011;9646;52.034;5.554;2023-07-02T01:02:25;10.10;;;5.35;;
19026;SDS011;9646;52.034;5.554;2023-07-02T01:04:54;10.48;;;5.25;;
19026;SDS011;9646;52.034;5.554;2023-07-02T01:07:24;13.38;;;5.30;;
19026;SDS011;9646;52.034;5.554;2023-07-02T01:09:51;12.02;;;5.68;;
19026;SDS011;9646;52.034;5.554;2023-07-02T01:12:18;10.02;;;5.70;;
19026;SDS011;9646;52.034;5.554;2023-07-02T01:14:47;8.70;;;4.90;;
19026;SDS011;9646;52.034;5.554;2023-07-02T01:17:16;12.10;;;5.40;;
19026;SDS011;9646;52.034;5.554;2023-07-02T01:19:46;11.38;;;5.78;;
19026;SDS011;9646;52.034;5.554;2023-07-02T01:22:16;14.02;;;5.28;;
19026;SDS011;9646;52.034;5.554;2023-07-02T01:24:45;9.30;;;5.03;;
19026;SDS011;9646;52.034;5.554;2023-07-02T01:27:13;11.90;;;5.70;;
19026;SDS011;9646;52.034;5.554;2023-07-02T01:29:40;11.77;;;5.40;;
19026;SDS011;9646;52.034;5.554;2023-07-02T01:32:07;13.88;;;5.75;;
19026;SDS011;9646;52.034;5.554;2023-07-02T01:34:34;12.80;;;5.78;;
19026;SDS011;9646;52.034;5.554;2023-07-02T01:37:03;10.07;;;5.38;;
19026;SDS011;9646;52.034;5.554;2023-07-02T01:39:30;12.02;;;5.35;;
19026;SDS011;9646;52.034;5.554;2023-07-02T01:42:07;11.25;;;4.90;;
19026;SDS011;9646;52.034;5.554;2023-07-02T01:44:34;11.23;;;5.78;;
19026;SDS011;9646;52.034;5.554;2023-07-02T01:47:01;12.43;;;5.43;;
19026;SDS011;9646;52.034;5.554;2023-07-02T01:49:28;14.65;;;5.63;;
19026;SDS011;9646;52.034;5.554;2023-07-02T01:51:55;13.20;;;5.40;;
19026;SDS011;9646;52.034;5.554;2023-07-02T01:54:24;12.77;;;5.53;;
19026;SDS011;9646;52.034;5.554;2023-07-02T01:56:52;12.07;;;5.65;;
19026;SDS011;9646;52.034;5.554;2023-07-02T01:59:19;10.88;;;5.53;;
19026;SDS011;9646;52.034;5.554;2023-07-02T02:01:46;9.85;;;5.95;;
19026;SDS011;9646;52.034;5.554;2023-07-02T02:04:14;8.88;;;5.10;;
19026;SDS011;9646;52.034;5.554;2023-07-02T02:06:41;17.98;;;6.75;;
19026;SDS011;9646;52.034;5.554;2023-07-02T02:09:09;9.10;;;4.80;;
19026;SDS011;9646;52.034;5.554;2023-07-02T02:11:39;13.25;;;5.20;;
19026;SDS011;9646;52.034;5.554;2023-07-02T02:14:06;12.68;;;5.82;;
19026;SDS011;9646;52.034;5.554;2023-07-02T02:16:33;9.73;;;5.55;;
19026;SDS011;9646;52.034;5.554;2023-07-02T02:19:00;12.52;;;5.68;;
19026;SDS011;9646;52.034;5.554;2023-07-02T02:21:27;15.10;;;6.70;;
19026;SDS011;9646;52.034;5.554;2023-07-02T02:23:54;11.20;;;5.47;;
19026;SDS011;9646;52.034;5.554;2023-07-02T02:26:22;9.05;;;4.72;;
19026;SDS011;9646;52.034;5.554;2023-07-02T02:28:51;14.20;;;5.78;;
19026;SDS011;9646;52.034;5.554;2023-07-02T02:31:18;9.98;;;5.18;;
19026;SDS011;9646;52.034;5.554;2023-07-02T02:33:45;9.73;;;4.18;;
19026;SDS011;9646;52.034;5.554;2023-07-02T02:36:13;9.30;;;5.10;;
19026;SDS011;9646;52.034;5.554;2023-07-02T02:38:40;8.82;;;5.70;;
19026;SDS011;9646;52.034;5.554;2023-07-02T02:41:08;15.93;;;6.65;;
19026;SDS011;9646;52.034;5.554;2023-07-02T02:43:35;7.15;;;4.30;;
19026;SDS011;9646;52.034;5.554;2023-07-02T02:46:03;6.32;;;4.55;;
19026;SDS011;9646;52.034;5.554;2023-07-02T02:48:30;14.23;;;5.85;;
19026;SDS011;9646;52.034;5.554;2023-07-02T02:50:57;13.88;;;5.72;;
19026;SDS011;9646;52.034;5.554;2023-07-02T02:53:25;10.85;;;5.50;;
19026;SDS011;9646;52.034;5.554;2023-07-02T02:55:52;9.38;;;5.22;;
19026;SDS011;9646;52.034;5.554;2023-07-02T02:58:19;14.63;;;6.53;;
19026;SDS011;9646;52.034;5.554;2023-07-02T03:00:47;12.48;;;5.47;;
19026;SDS011;9646;52.034;5.554;2023-07-02T03:03:16;14.00;;;5.88;;
19026;SDS011;9646;52.034;5.554;2023-07-02T03:05:44;13.13;;;6.15;;
19026;SDS011;9646;52.034;5.554;2023-07-02T03:08:13;12.50;;;6.47;;
19026;SDS011;9646;52.034;5.554;2023-07-02T03:10:40;12.38;;;5.78;;
19026;SDS011;9646;52.034;5.554;2023-07-02T03:13:07;9.65;;;5.50;;
19026;SDS011;9646;52.034;5.554;2023-07-02T03:15:34;13.32;;;5.40;;
19026;SDS011;9646;52.034;5.554;2023-07-02T03:18:01;12.02;;;6.07;;
19026;SDS011;9646;52.034;5.554;2023-07-02T03:20:29;13.90;;;6.57;;
19026;SDS011;9646;52.034;5.554;2023-07-02T03:22:56;13.27;;;5.45;;
19026;SDS011;9646;52.034;5.554;2023-07-02T03:25:24;11.80;;;6.10;;
19026;SDS011;9646;52.034;5.554;2023-07-02T03:27:51;11.35;;;6.20;;
19026;SDS011;9646;52.034;5.554;2023-07-02T03:30:18;9.43;;;5.50;;
19026;SDS011;9646;52.034;5.554;2023-07-02T03:32:45;13.05;;;5.50;;
19026;SDS011;9646;52.034;5.554;2023-07-02T03:35:12;12.43;;;5.82;;
19026;SDS011;9646;52.034;5.554;2023-07-02T03:37:40;11.75;;;6.00;;
19026;SDS011;9646;52.034;5.554;2023-07-02T03:40:09;13.38;;;6.35;;
19026;SDS011;9646;52.034;5.554;2023-07-02T03:42:36;12.73;;;6.35;;
19026;SDS011;9646;52.034;5.554;2023-07-02T03:45:03;13.57;;;6.43;;
19026;SDS011;9646;52.034;5.554;2023-07-02T03:47:30;9.88;;;5.32;;
19026;SDS011;9646;52.034;5.554;2023-07-02T03:49:57;18.38;;;6.43;;
19026;SDS011;9646;52.034;5.554;2023-07-02T03:52:24;11.57;;;5.97;;
19026;SDS011;9646;52.034;5.554;2023-07-02T03:54:53;11.60;;;5.70;;
19026;SDS011;9646;52.034;5.554;2023-07-02T03:57:20;15.30;;;6.35;;
19026;SDS011;9646;52.034;5.554;2023-07-02T03:59:47;12.88;;;6.07;;
19026;SDS011;9646;52.034;5.554;2023-07-02T04:02:14;14.80;;;6.78;;
19026;SDS011;9646;52.034;5.554;2023-07-02T04:04:41;14.00;;;6.35;;
19026;SDS011;9646;52.034;5.554;2023-07-02T04:07:08;14.25;;;5.93;;
19026;SDS011;9646;52.034;5.554;2023-07-02T04:09:35;12.50;;;6.30;;
19026;SDS011;9646;52.034;5.554;2023-07-02T04:12:04;13.27;;;6.55;;
19026;SDS011;9646;52.034;5.554;2023-07-02T04:14:31;13.43;;;6.15;;
19026;SDS011;9646;52.034;5.554;2023-07-02T04:16:58;16.00;;;5.95;;
19026;SDS011;9646;52.034;5.554;2023-07-02T04:19:25;19.42;;;6.90;;
19026;SDS011;9646;52.034;5.554;2023-07-02T04:21:52;13.93;;;6.55;;
19026;SDS011;9646;52.034;5.554;2023-07-02T04:24:19;14.57;;;6.97;;
19026;SDS011;9646;52.034;5.554;2023-07-02T04:26:46;15.05;;;6.85;;
19026;SDS011;9646;52.034;5.554;2023-07-02T04:29:14;16.60;;;6.75;;
19026;SDS011;9646;52.034;5.554;2023-07-02T04:31:41;15.27;;;6.20;;
19026;SDS011;9646;52.034;5.554;2023-07-02T04:34:08;17.77;;;6.30;;
19026;SDS011;9646;52.034;5.554;2023-07-02T04:36:35;13.73;;;6.80;;
19026;SDS011;9646;52.034;5.554;2023-07-02T04:39:03;15.13;;;7.13;;
19026;SDS011;9646;52.034;5.554;2023-07-02T04:41:30;12.00;;;6.22;;
19026;SDS011;9646;52.034;5.554;2023-07-02T04:43:57;13.70;;;6.65;;
19026;SDS011;9646;52.034;5.554;2023-07-02T04:46:26;17.63;;;7.35;;
19026;SDS011;9646;52.034;5.554;2023-07-02T04:48:53;17.90;;;6.60;;
19026;SDS011;9646;52.034;5.554;2023-07-02T04:51:20;16.00;;;7.32;;
19026;SDS011;9646;52.034;5.554;2023-07-02T04:53:47;20.10;;;7.57;;
19026;SDS011;9646;52.034;5.554;2023-07-02T04:56:14;15.20;;;7.57;;
19026;SDS011;9646;52.034;5.554;2023-07-02T04:58:41;21.15;;;8.05;;
19026;SDS011;9646;52.034;5.554;2023-07-02T05:01:08;17.58;;;6.82;;
19026;SDS011;9646;52.034;5.554;2023-07-02T05:03:37;17.75;;;7.45;;
19026;SDS011;9646;52.034;5.554;2023-07-02T05:06:04;17.13;;;7.82;;
19026;SDS011;9646;52.034;5.554;2023-07-02T05:08:31;20.40;;;8.02;;
19026;SDS011;9646;52.034;5.554;2023-07-02T05:10:58;16.13;;;7.80;;
19026;SDS011;9646;52.034;5.554;2023-07-02T05:13:25;18.17;;;8.65;;
19026;SDS011;9646;52.034;5.554;2023-07-02T05:15:53;19.13;;;7.97;;
19026;SDS011;9646;52.034;5.554;2023-07-02T05:18:20;16.05;;;7.22;;
19026;SDS011;9646;52.034;5.554;2023-07-02T05:20:48;17.80;;;7.18;;
19026;SDS011;9646;52.034;5.554;2023-07-02T05:23:15;15.15;;;7.40;;
19026;SDS011;9646;52.034;5.554;2023-07-02T05:25:42;18.15;;;8.32;;
19026;SDS011;9646;52.034;5.554;2023-07-02T05:28:11;20.52;;;8.65;;
19026;SDS011;9646;52.034;5.554;2023-07-02T05:30:38;15.63;;;7.03;;
19026;SDS011;9646;52.034;5.554;2023-07-02T05:33:05;18.15;;;7.32;;
19026;SDS011;9646;52.034;5.554;2023-07-02T05:35:32;19.60;;;6.97;;
19026;SDS011;9646;52.034;5.554;2023-07-02T05:38:00;18.00;;;7.72;;
19026;SDS011;9646;52.034;5.554;2023-07-02T05:40:27;22.20;;;7.53;;
19026;SDS011;9646;52.034;5.554;2023-07-02T05:42:54;17.55;;;7.55;;
19026;SDS011;9646;52.034;5.554;2023-07-02T05:45:21;18.20;;;7.45;;
19026;SDS011;9646;52.034;5.554;2023-07-02T05:47:49;17.50;;;7.82;;
19026;SDS011;9646;52.034;5.554;2023-07-02T05:50:16;23.38;;;9.68;;
19026;SDS011;9646;52.034;5.554;2023-07-02T05:52:43;18.60;;;8.00;;
19026;SDS011;9646;52.034;5.554;2023-07-02T05:55:12;20.60;;;8.57;;
19026;SDS011;9646;52.034;5.554;2023-07-02T05:57:39;15.98;;;7.25;;
19026;SDS011;9646;52.034;5.554;2023-07-02T06:00:06;18.50;;;7.15;;
19026;SDS011;9646;52.034;5.554;2023-07-02T06:02:33;19.02;;;6.72;;
19026;SDS011;9646;52.034;5.554;2023-07-02T06:05:00;15.68;;;7.93;;
19026;SDS011;9646;52.034;5.554;2023-07-02T06:07:27;17.52;;;7.25;;
19026;SDS011;9646;52.034;5.554;2023-07-02T06:09:54;16.70;;;6.53;;
19026;SDS011;9646;52.034;5.554;2023-07-02T06:12:23;20.17;;;7.65;;
19026;SDS011;9646;52.034;5.554;2023-07-02T06:14:50;18.73;;;7.32;;
19026;SDS011;9646;52.034;5.554;2023-07-02T06:17:17;18.30;;;7.25;;
19026;SDS011;9646;52.034;5.554;2023-07-02T06:19:45;17.30;;;7.45;;
19026;SDS011;9646;52.034;5.554;2023-07-02T06:22:13;16.02;;;7.90;;
19026;SDS011;9646;52.034;5.554;2023-07-02T06:24:40;15.55;;;6.82;;
19026;SDS011;9646;52.034;5.554;2023-07-02T06:27:07;16.77;;;7.65;;
19026;SDS011;9646;52.034;5.554;2023-07-02T06:29:35;18.10;;;7.57;;
19026;SDS011;9646;52.034;5.554;2023-07-02T06:32:02;18.40;;;8.38;;
19026;SDS011;9646;52.034;5.554;2023-07-02T06:34:30;17.35;;;7.32;;
19026;SDS011;9646;52.034;5.554;2023-07-02T06:36:57;23.20;;;8.20;;
19026;SDS011;9646;52.034;5.554;2023-07-02T06:39:24;18.63;;;7.35;;
19026;SDS011;9646;52.034;5.554;2023-07-02T06:41:51;20.60;;;7.97;;
19026;SDS011;9646;52.034;5.554;2023-07-02T06:44:18;17.95;;;7.20;;
19026;SDS011;9646;52.034;5.554;2023-07-02T06:46:46;18.27;;;7.43;;
19026;SDS011;9646;52.034;5.554;2023-07-02T06:49:14;16.45;;;7.43;;
19026;SDS011;9646;52.034;5.554;2023-07-02T06:51:41;18.55;;;8.05;;
19026;SDS011;9646;52.034;5.554;2023-07-02T06:54:08;16.20;;;7.05;;
19026;SDS011;9646;52.034;5.554;2023-07-02T06:56:35;20.65;;;7.30;;
19026;SDS011;9646;52.034;5.554;2023-07-02T06:59:02;17.25;;;6.57;;
19026;SDS011;9646;52.034;5.554;2023-07-02T07:01:29;15.75;;;6.97;;
19026;SDS011;9646;52.034;5.554;2023-07-02T07:03:57;15.00;;;7.38;;
19026;SDS011;9646;52.034;5.554;2023-07-02T07:06:25;13.98;;;6.32;;
19026;SDS011;9646;52.034;5.554;2023-07-02T07:08:52;15.93;;;7.38;;
19026;SDS011;9646;52.034;5.554;2023-07-02T07:11:19;17.23;;;6.78;;
19026;SDS011;9646;52.034;5.554;2023-07-02T07:13:46;17.88;;;7.03;;
19026;SDS011;9646;52.034;5.554;2023-07-02T07:16:13;20.45;;;7.53;;
19026;SDS011;9646;52.034;5.554;2023-07-02T07:18:40;15.30;;;6.47;;
19026;SDS011;9646;52.034;5.554;2023-07-02T07:21:08;13.70;;;6.22;;
19026;SDS011;9646;52.034;5.554;2023-07-02T07:23:35;15.52;;;6.10;;
19026;SDS011;9646;52.034;5.554;2023-07-02T07:26:02;16.85;;;6.70;;
19026;SDS011;9646;52.034;5.554;2023-07-02T07:28:29;15.48;;;6.07;;
19026;SDS011;9646;52.034;5.554;2023-07-02T07:30:56;15.00;;;6.00;;
19026;SDS011;9646;52.034;5.554;2023-07-02T07:33:23;13.45;;;6.03;;
19026;SDS011;9646;52.034;5.554;2023-07-02T07:35:50;12.50;;;5.78;;
19026;SDS011;9646;52.034;5.554;2023-07-02T07:38:19;13.23;;;5.60;;
19026;SDS011;9646;52.034;5.554;2023-07-02T07:40:46;15.75;;;7.05;;
19026;SDS011;9646;52.034;5.554;2023-07-02T07:43:13;16.02;;;6.75;;
19026;SDS011;9646;52.034;5.554;2023-07-02T07:45:40;12.60;;;5.72;;
19026;SDS011;9646;52.034;5.554;2023-07-02T07:48:07;15.30;;;5.88;;
19026;SDS011;9646;52.034;5.554;2023-07-02T07:50:34;15.60;;;6.90;;
19026;SDS011;9646;52.034;5.554;2023-07-02T07:53:01;17.15;;;6.35;;
19026;SDS011;9646;52.034;5.554;2023-07-02T07:55:30;15.88;;;6.63;;
19026;SDS011;9646;52.034;5.554;2023-07-02T07:57:57;15.13;;;6.40;;
19026;SDS011;9646;52.034;5.554;2023-07-02T08:00:24;14.73;;;6.72;;
19026;SDS011;9646;52.034;5.554;2023-07-02T08:02:52;12.05;;;5.68;;
19026;SDS011;9646;52.034;5.554;2023-07-02T08:05:20;13.23;;;5.55;;
19026;SDS011;9646;52.034;5.554;2023-07-02T08:07:48;13.30;;;5.78;;
19026;SDS011;9646;52.034;5.554;2023-07-02T08:10:15;11.27;;;5.85;;
19026;SDS011;9646;52.034;5.554;2023-07-02T08:12:43;11.55;;;5.60;;
19026;SDS011;9646;52.034;5.554;2023-07-02T08:15:11;11.60;;;6.00;;
19026;SDS011;9646;52.034;5.554;2023-07-02T08:17:38;15.30;;;6.10;;
19026;SDS011;9646;52.034;5.554;2023-07-02T08:20:05;12.02;;;6.00;;
19026;SDS011;9646;52.034;5.554;2023-07-02T08:22:34;11.98;;;5.60;;
19026;SDS011;9646;52.034;5.554;2023-07-02T08:25:02;9.05;;;4.90;;
19026;SDS011;9646;52.034;5.554;2023-07-02T08:27:29;10.25;;;5.80;;
19026;SDS011;9646;52.034;5.554;2023-07-02T08:29:58;10.98;;;5.05;;
19026;SDS011;9646;52.034;5.554;2023-07-02T08:32:25;11.05;;;6.05;;
19026;SDS011;9646;52.034;5.554;2023-07-02T08:34:52;12.43;;;5.30;;
19026;SDS011;9646;52.034;5.554;2023-07-02T08:37:19;11.43;;;5.78;;
19026;SDS011;9646;52.034;5.554;2023-07-02T08:39:48;13.00;;;5.55;;
19026;SDS011;9646;52.034;5.554;2023-07-02T08:42:15;15.18;;;5.85;;
19026;SDS011;9646;52.034;5.554;2023-07-02T08:44:42;9.20;;;5.15;;
19026;SDS011;9646;52.034;5.554;2023-07-02T08:47:13;12.85;;;5.90;;
19026;SDS011;9646;52.034;5.554;2023-07-02T08:49:41;10.38;;;5.53;;
19026;SDS011;9646;52.034;5.554;2023-07-02T08:52:08;12.98;;;5.53;;
19026;SDS011;9646;52.034;5.554;2023-07-02T08:54:35;12.63;;;5.70;;
19026;SDS011;9646;52.034;5.554;2023-07-02T08:57:03;9.63;;;4.93;;
19026;SDS011;9646;52.034;5.554;2023-07-02T08:59:31;9.63;;;5.13;;
19026;SDS011;9646;52.034;5.554;2023-07-02T09:01:58;8.38;;;5.00;;
19026;SDS011;9646;52.034;5.554;2023-07-02T09:04:26;12.52;;;6.13;;
19026;SDS011;9646;52.034;5.554;2023-07-02T09:07:02;12.60;;;5.38;;
19026;SDS011;9646;52.034;5.554;2023-07-02T09:09:30;9.55;;;5.15;;
19026;SDS011;9646;52.034;5.554;2023-07-02T09:11:57;10.98;;;4.20;;
19026;SDS011;9646;52.034;5.554;2023-07-02T09:14:24;9.32;;;4.78;;
19026;SDS011;9646;52.034;5.554;2023-07-02T09:17:04;11.02;;;4.80;;
19026;SDS011;9646;52.034;5.554;2023-07-02T09:19:33;10.05;;;4.40;;
19026;SDS011;9646;52.034;5.554;2023-07-02T09:22:01;11.73;;;5.60;;
19026;SDS011;9646;52.034;5.554;2023-07-02T09:24:28;7.95;;;3.92;;
19026;SDS011;9646;52.034;5.554;2023-07-02T09:26:56;8.55;;;4.35;;
19026;SDS011;9646;52.034;5.554;2023-07-02T09:29:24;8.48;;;4.55;;
19026;SDS011;9646;52.034;5.554;2023-07-02T09:31:52;10.18;;;4.43;;
19026;SDS011;9646;52.034;5.554;2023-07-02T09:34:19;10.25;;;4.18;;
19026;SDS011;9646;52.034;5.554;2023-07-02T09:36:47;10.05;;;4.53;;
19026;SDS011;9646;52.034;5.554;2023-07-02T09:39:20;8.73;;;3.92;;
19026;SDS011;9646;52.034;5.554;2023-07-02T09:41:48;11.48;;;4.13;;
19026;SDS011;9646;52.034;5.554;2023-07-02T09:44:15;10.35;;;4.75;;
19026;SDS011;9646;52.034;5.554;2023-07-02T09:46:44;10.38;;;4.93;;
19026;SDS011;9646;52.034;5.554;2023-07-02T09:49:13;7.70;;;4.03;;
19026;SDS011;9646;52.034;5.554;2023-07-02T09:51:41;9.07;;;4.00;;
19026;SDS011;9646;52.034;5.554;2023-07-02T09:54:10;6.38;;;3.80;;
19026;SDS011;9646;52.034;5.554;2023-07-02T09:56:37;7.30;;;3.28;;
19026;SDS011;9646;52.034;5.554;2023-07-02T09:59:04;6.72;;;3.60;;
19026;SDS011;9646;52.034;5.554;2023-07-02T10:01:31;6.70;;;3.40;;
19026;SDS011;9646;52.034;5.554;2023-07-02T10:04:09;6.07;;;3.67;;
19026;SDS011;9646;52.034;5.554;2023-07-02T10:06:43;7.50;;;3.45;;
19026;SDS011;9646;52.034;5.554;2023-07-02T10:09:12;8.05;;;3.70;;
19026;SDS011;9646;52.034;5.554;2023-07-02T10:11:39;6.13;;;3.08;;
19026;SDS011;9646;52.034;5.554;2023-07-02T10:14:06;6.03;;;3.50;;
19026;SDS011;9646;52.034;5.554;2023-07-02T10:16:33;6.40;;;3.85;;
19026;SDS011;9646;52.034;5.554;2023-07-02T10:19:09;6.75;;;3.67;;
19026;SDS011;9646;52.034;5.554;2023-07-02T10:21:36;5.10;;;3.13;;
19026;SDS011;9646;52.034;5.554;2023-07-02T10:24:12;7.93;;;3.22;;
19026;SDS011;9646;52.034;5.554;2023-07-02T10:26:50;6.38;;;3.63;;
19026;SDS011;9646;52.034;5.554;2023-07-02T10:29:18;6.80;;;3.67;;
19026;SDS011;9646;52.034;5.554;2023-07-02T10:31:49;7.10;;;4.45;;
19026;SDS011;9646;52.034;5.554;2023-07-02T10:34:27;9.20;;;3.97;;
19026;SDS011;9646;52.034;5.554;2023-07-02T10:36:54;7.00;;;4.10;;
19026;SDS011;9646;52.034;5.554;2023-07-02T10:39:22;8.05;;;3.38;;
19026;SDS011;9646;52.034;5.554;2023-07-02T10:41:49;6.15;;;3.72;;
19026;SDS011;9646;52.034;5.554;2023-07-02T10:44:16;7.90;;;3.22;;
19026;SDS011;9646;52.034;5.554;2023-07-02T10:46:44;5.95;;;3.50;;
19026;SDS011;9646;52.034;5.554;2023-07-02T10:49:11;5.32;;;3.67;;
19026;SDS011;9646;52.034;5.554;2023-07-02T10:51:38;6.60;;;3.40;;
19026;SDS011;9646;52.034;5.554;2023-07-02T10:54:05;6.45;;;3.53;;
19026;SDS011;9646;52.034;5.554;2023-07-02T10:56:34;6.65;;;3.28;;
19026;SDS011;9646;52.034;5.554;2023-07-02T10:59:01;5.22;;;2.80;;
19026;SDS011;9646;52.034;5.554;2023-07-02T11:01:29;5.72;;;3.00;;
19026;SDS011;9646;52.034;5.554;2023-07-02T11:03:56;6.60;;;3.28;;
19026;SDS011;9646;52.034;5.554;2023-07-02T11:06:24;7.03;;;3.83;;
19026;SDS011;9646;52.034;5.554;2023-07-02T11:08:51;6.70;;;3.55;;
19026;SDS011;9646;52.034;5.554;2023-07-02T11:11:19;7.05;;;3.28;;
19026;SDS011;9646;52.034;5.554;2023-07-02T11:13:48;7.55;;;3.30;;
19026;SDS011;9646;52.034;5.554;2023-07-02T11:16:19;6.30;;;2.80;;
19026;SDS011;9646;52.034;5.554;2023-07-02T11:18:48;7.40;;;4.00;;
19026;SDS011;9646;52.034;5.554;2023-07-02T11:21:15;6.85;;;3.83;;
19026;SDS011;9646;52.034;5.554;2023-07-02T11:23:42;6.80;;;3.72;;
19026;SDS011;9646;52.034;5.554;2023-07-02T11:26:09;5.63;;;3.17;;
19026;SDS011;9646;52.034;5.554;2023-07-02T11:28:47;6.38;;;3.50;;
19026;SDS011;9646;52.034;5.554;2023-07-02T11:31:23;7.32;;;3.70;;
19026;SDS011;9646;52.034;5.554;2023-07-02T11:33:51;7.78;;;3.90;;
19026;SDS011;9646;52.034;5.554;2023-07-02T11:36:21;7.22;;;3.65;;
19026;SDS011;9646;52.034;5.554;2023-07-02T11:38:49;5.65;;;3.45;;
19026;SDS011;9646;52.034;5.554;2023-07-02T11:41:16;8.15;;;4.03;;
19026;SDS011;9646;52.034;5.554;2023-07-02T11:43:44;6.60;;;3.67;;
19026;SDS011;9646;52.034;5.554;2023-07-02T11:46:11;6.95;;;3.45;;
19026;SDS011;9646;52.034;5.554;2023-07-02T11:48:39;7.88;;;3.63;;
19026;SDS011;9646;52.034;5.554;2023-07-02T11:51:06;7.00;;;3.80;;
19026;SDS011;9646;52.034;5.554;2023-07-02T11:53:33;6.53;;;3.90;;
19026;SDS011;9646;52.034;5.554;2023-07-02T11:56:00;6.88;;;4.07;;
19026;SDS011;9646;52.034;5.554;2023-07-02T11:58:27;7.13;;;3.78;;
19026;SDS011;9646;52.034;5.554;2023-07-02T12:00:54;6.07;;;3.70;;
19026;SDS011;9646;52.034;5.554;2023-07-02T12:03:21;6.35;;;3.65;;
19026;SDS011;9646;52.034;5.554;2023-07-02T12:05:50;7.53;;;4.18;;
19026;SDS011;9646;52.034;5.554;2023-07-02T12:08:17;7.63;;;3.92;;
19026;SDS011;9646;52.034;5.554;2023-07-02T12:10:44;6.85;;;3.20;;
19026;SDS011;9646;52.034;5.554;2023-07-02T12:13:11;6.38;;;4.03;;
19026;SDS011;9646;52.034;5.554;2023-07-02T12:15:38;7.50;;;3.97;;
19026;SDS011;9646;52.034;5.554;2023-07-02T12:18:05;8.85;;;4.55;;
19026;SDS011;9646;52.034;5.554;2023-07-02T12:20:32;6.35;;;3.50;;
19026;SDS011;9646;52.034;5.554;2023-07-02T12:23:01;7.95;;;3.67;;
19026;SDS011;9646;52.034;5.554;2023-07-02T12:25:28;7.10;;;3.45;;
19026;SDS011;9646;52.034;5.554;2023-07-02T12:27:55;9.07;;;4.20;;
19026;SDS011;9646;52.034;5.554;2023-07-02T12:30:22;8.15;;;4.18;;
19026;SDS011;9646;52.034;5.554;2023-07-02T12:32:49;8.02;;;3.80;;
19026;SDS011;9646;52.034;5.554;2023-07-02T12:35:16;7.30;;;3.60;;
19026;SDS011;9646;52.034;5.554;2023-07-02T12:37:43;8.88;;;4.20;;
19026;SDS011;9646;52.034;5.554;2023-07-02T12:40:12;8.70;;;4.60;;
19026;SDS011;9646;52.034;5.554;2023-07-02T12:42:40;8.00;;;3.60;;
19026;SDS011;9646;52.034;5.554;2023-07-02T12:45:08;6.22;;;3.80;;
19026;SDS011;9646;52.034;5.554;2023-07-02T12:47:35;6.07;;;4.18;;
19026;SDS011;9646;52.034;5.554;2023-07-02T12:50:02;7.05;;;4.65;;
19026;SDS011;9646;52.034;5.554;2023-07-02T12:52:30;10.18;;;4.15;;
19026;SDS011;9646;52.034;5.554;2023-07-02T12:54:57;9.25;;;4.35;;
19026;SDS011;9646;52.034;5.554;2023-07-02T12:57:25;7.13;;;4.10;;
19026;SDS011;9646;52.034;5.554;2023-07-02T12:59:52;9.40;;;4.47;;
19026;SDS011;9646;52.034;5.554;2023-07-02T13:02:20;8.88;;;4.40;;
19026;SDS011;9646;52.034;5.554;2023-07-02T13:04:47;7.38;;;4.10;;
19026;SDS011;9646;52.034;5.554;2023-07-02T13:07:14;7.88;;;4.35;;
19026;SDS011;9646;52.034;5.554;2023-07-02T13:09:41;8.10;;;4.38;;
19026;SDS011;9646;52.034;5.554;2023-07-02T13:12:09;6.85;;;4.03;;
19026;SDS011;9646;52.034;5.554;2023-07-02T13:14:38;8.82;;;4.20;;
19026;SDS011;9646;52.034;5.554;2023-07-02T13:17:05;8.73;;;3.70;;
19026;SDS011;9646;52.034;5.554;2023-07-02T13:19:32;7.93;;;4.45;;
19026;SDS011;9646;52.034;5.554;2023-07-02T13:22:00;9.02;;;4.57;;
19026;SDS011;9646;52.034;5.554;2023-07-02T13:24:31;9.35;;;4.15;;
19026;SDS011;9646;52.034;5.554;2023-07-02T13:26:59;8.52;;;4.15;;
19026;SDS011;9646;52.034;5.554;2023-07-02T13:29:27;6.70;;;4.38;;
19026;SDS011;9646;52.034;5.554;2023-07-02T13:31:56;8.02;;;3.53;;
19026;SDS011;9646;52.034;5.554;2023-07-02T13:34:23;8.13;;;4.15;;
19026;SDS011;9646;52.034;5.554;2023-07-02T13:36:50;10.77;;;4.18;;
19026;SDS011;9646;52.034;5.554;2023-07-02T13:39:17;9.20;;;4.70;;
19026;SDS011;9646;52.034;5.554;2023-07-02T13:41:44;7.68;;;4.50;;
19026;SDS011;9646;52.034;5.554;2023-07-02T13:44:11;7.72;;;4.60;;
19026;SDS011;9646;52.034;5.554;2023-07-02T13:46:38;9.70;;;4.53;;
19026;SDS011;9646;52.034;5.554;2023-07-02T13:49:07;9.32;;;4.05;;
19026;SDS011;9646;52.034;5.554;2023-07-02T13:51:35;8.88;;;4.10;;
19026;SDS011;9646;52.034;5.554;2023-07-02T13:54:02;8.57;;;3.78;;
19026;SDS011;9646;52.034;5.554;2023-07-02T13:56:29;9.45;;;4.25;;
19026;SDS011;9646;52.034;5.554;2023-07-02T13:59:02;8.18;;;4.22;;
19026;SDS011;9646;52.034;5.554;2023-07-02T14:01:29;8.18;;;4.00;;
19026;SDS011;9646;52.034;5.554;2023-07-02T14:03:57;7.53;;;4.43;;
19026;SDS011;9646;52.034;5.554;2023-07-02T14:06:24;8.85;;;4.70;;
19026;SDS011;9646;52.034;5.554;2023-07-02T14:08:51;8.68;;;4.50;;
19026;SDS011;9646;52.034;5.554;2023-07-02T14:11:18;8.90;;;5.15;;
19026;SDS011;9646;52.034;5.554;2023-07-02T14:13:46;7.03;;;4.38;;
19026;SDS011;9646;52.034;5.554;2023-07-02T14:16:14;8.88;;;4.40;;
19026;SDS011;9646;52.034;5.554;2023-07-02T14:18:41;12.55;;;4.25;;
19026;SDS011;9646;52.034;5.554;2023-07-02T14:21:08;7.43;;;4.13;;
19026;SDS011;9646;52.034;5.554;2023-07-02T14:23:35;10.68;;;4.13;;
19026;SDS011;9646;52.034;5.554;2023-07-02T14:26:02;9.32;;;4.57;;
19026;SDS011;9646;52.034;5.554;2023-07-02T14:28:30;9.15;;;4.45;;
19026;SDS011;9646;52.034;5.554;2023-07-02T14:30:57;10.90;;;4.40;;
19026;SDS011;9646;52.034;5.554;2023-07-02T14:33:26;9.07;;;4.55;;
19026;SDS011;9646;52.034;5.554;2023-07-02T14:35:53;7.05;;;4.28;;
19026;SDS011;9646;52.034;5.554;2023-07-02T14:38:20;7.95;;;4.15;;
19026;SDS011;9646;52.034;5.554;2023-07-02T14:40:47;7.90;;;4.88;;
19026;SDS011;9646;52.034;5.554;2023-07-02T14:43:14;11.60;;;4.93;;
19026;SDS011;9646;52.034;5.554;2023-07-02T14:45:43;9.27;;;4.97;;
19026;SDS011;9646;52.034;5.554;2023-07-02T14:48:10;9.57;;;5.53;;
19026;SDS011;9646;52.034;5.554;2023-07-02T14:50:42;7.82;;;4.65;;
19026;SDS011;9646;52.034;5.554;2023-07-02T14:53:09;8.88;;;5.10;;
19026;SDS011;9646;52.034;5.554;2023-07-02T14:55:36;7.93;;;4.30;;